Jrt Moran — WDI3936 — position and weather

sailwx.info

Track history (hours):
 
Tides and Currents Weather Stations Pressure Air Temp Water Temp Dewpoint Dewpoint Depression Visibility Wind Speed Wind Dir Waves Ship Positions

Jrt Moran

Owner: Moran Towing Corporation, New Canaan, CT. More information available from US FCC via Universal Licensing System and Coast Guard Vessel Documentation Center.

Last reported at 2018-Feb-19 20:01 UTC. Time now 2018-Feb-19 20:12 UTC.
Position N 40°39' W 074°07'.

Length 28 m; draft 4.6 m.

Type: Tug. MMSI: 338073000.

Date/timePositionNaut miles runAvg speedWind from/ knotsBaromVisibWave heightAir tempDewpointWater temp
2018-Feb-19 20:01N 40°39' W 074°07'2 4.8
2018-Feb-19 19:30N 40°39' W 074°04'3 5.6
2018-Feb-19 19:01N 40°36' W 074°03'4 7.0
2018-Feb-19 18:30N 40°39' W 074°06'1 2.8
2018-Feb-19 17:59N 40°38' W 074°08'0 0.0
2018-Feb-19 17:28N 40°38' W 074°08'0 0.0
2018-Feb-19 16:58N 40°38' W 074°08'0 0.0
2018-Feb-19 16:22N 40°38' W 074°08'0 0.0
2018-Feb-19 15:58N 40°38' W 074°08'1 2.1
2018-Feb-19 15:29N 40°39' W 074°07'0 0.0
2018-Feb-19 14:59N 40°39' W 074°07'0 0.0
2018-Feb-19 14:17N 40°39' W 074°07'0 0.0
2018-Feb-19 12:49N 40°39' W 074°07'2 5.4
2018-Feb-19 12:30N 40°39' W 074°09'2 4.2
2018-Feb-19 12:00N 40°41' W 074°09'0 0.1
2018-Feb-19 11:30N 40°41' W 074°08'1 2.9
2018-Feb-19 11:00N 40°39' W 074°09'2 4.0
2018-Feb-19 10:30N 40°39' W 074°06'2 4.5
2018-Feb-19 10:00N 40°38' W 074°03'3 6.9
2018-Feb-19 09:30N 40°38' W 074°08'0 0.0
2018-Feb-19 08:59N 40°38' W 074°08'0 0.0
2018-Feb-19 08:23N 40°38' W 074°08'0 0.0
2018-Feb-19 07:56N 40°38' W 074°08'0 0.0
2018-Feb-19 07:29N 40°38' W 074°08'0 0.0
2018-Feb-19 06:59N 40°38' W 074°08'0 0.0
2018-Feb-19 06:29N 40°38' W 074°08'0 0.0
2018-Feb-19 05:56N 40°38' W 074°08'0 0.0
2018-Feb-19 05:26N 40°38' W 074°08'0 0.0
2018-Feb-19 04:59N 40°38' W 074°08'0 0.0
2018-Feb-19 04:23N 40°38' W 074°08'0 0.0
2018-Feb-19 03:59N 40°38' W 074°08'2 3.2
2018-Feb-19 03:30N 40°39' W 074°06'0 0.4
2018-Feb-19 03:00N 40°39' W 074°06'2 4.5
2018-Feb-19 02:30N 40°39' W 074°09'2 3.5
2018-Feb-19 02:00N 40°41' W 074°08'1 1.3
2018-Feb-19 01:30N 40°41' W 074°09'1 1.3
2018-Feb-19 00:59N 40°40' W 074°08'0 0.0
2018-Feb-19 00:30N 40°40' W 074°08'0 0.0
2018-Feb-19 00:00N 40°40' W 074°08'0 0.0
2018-Feb-18 23:30N 40°40' W 074°08'0 0.0
2018-Feb-18 23:00N 40°40' W 074°08'1 1.2
2018-Feb-18 22:30N 40°40' W 074°09'0 0.3
2018-Feb-18 22:00N 40°40' W 074°09'2 3.1
2018-Feb-18 21:30N 40°39' W 074°07'1 2.4
2018-Feb-18 21:00N 40°39' W 074°06'1 2.4
2018-Feb-18 20:29N 40°39' W 074°07'1 1.2
2018-Feb-18 20:00N 40°39' W 074°08'2 4.0
2018-Feb-18 19:28N 40°41' W 074°09'1 1.1
2018-Feb-18 19:00N 40°41' W 074°09'2 4.2
2018-Feb-18 18:30N 40°39' W 074°09'1 2.0
2018-Feb-18 18:00N 40°38' W 074°08'0 0.0
2018-Feb-18 17:19N 40°38' W 074°08'0 0.0
2018-Feb-18 16:34N 40°38' W 074°08'0 0.0
2018-Feb-18 14:22N 40°38' W 074°08'1 2.5
2018-Feb-18 14:00N 40°39' W 074°07'0 0.1
2018-Feb-18 13:30N 40°39' W 074°07'1 0.7
2018-Feb-18 12:03N 40°38' W 074°08'0 0.0
2018-Feb-18 11:18N 40°38' W 074°08'2 5.3
2018-Feb-18 11:00N 40°40' W 074°08'1 1.7
2018-Feb-18 10:30N 40°41' W 074°09'0 0.5
2018-Feb-18 09:59N 40°41' W 074°09'2 3.4
2018-Feb-18 09:30N 40°39' W 074°09'2 3.3
2018-Feb-18 09:00N 40°39' W 074°07'2 4.9
2018-Feb-18 08:30N 40°39' W 074°04'1 2.6
2018-Feb-18 08:00N 40°37' W 074°03'4 8.0
2018-Feb-18 07:30N 40°39' W 074°08'4 7.6
2018-Feb-18 06:57N 40°36' W 074°12'2 4.5
2018-Feb-18 06:30N 40°38' W 074°12'0 0.3
2018-Feb-18 06:00N 40°38' W 074°12'2 5.0
2018-Feb-18 05:30N 40°39' W 074°09'1 0.9
2018-Feb-18 04:14N 40°38' W 074°08'0 0.0
2018-Feb-18 03:05N 40°38' W 074°08'0 0.0
2018-Feb-18 02:51N 40°38' W 074°08'0 0.0
2018-Feb-18 02:30N 40°38' W 074°08'0 0.0
2018-Feb-18 01:16N 40°38' W 074°08'0 0.0
2018-Feb-18 00:38N 40°38' W 074°08'0 0.0
2018-Feb-18 00:30N 40°38' W 074°08'1 1.1
2018-Feb-18 00:00N 40°39' W 074°07'0 0.6
2018-Feb-17 23:30N 40°39' W 074°07'0 0.4
2018-Feb-17 22:51N 40°38' W 074°08'0 0.0
2018-Feb-17 22:21N 40°38' W 074°08'0 0.0
2018-Feb-17 20:58N 40°38' W 074°08'0 0.8
2018-Feb-17 20:30N 40°39' W 074°07'1 3.0
2018-Feb-17 20:00N 40°40' W 074°09'0 0.3
2018-Feb-17 19:30N 40°40' W 074°09'1 2.0
2018-Feb-17 18:59N 40°39' W 074°09'1 0.9
2018-Feb-17 18:10N 40°38' W 074°08'0 0.0
2018-Feb-17 17:58N 40°38' W 074°08'0 0.0
2018-Feb-17 17:04N 40°38' W 074°08'0 0.0
2018-Feb-17 16:52N 40°38' W 074°08'0 0.0
2018-Feb-17 14:37N 40°38' W 074°08'0 0.0
2018-Feb-17 14:10N 40°38' W 074°08'0 0.0
2018-Feb-17 13:58N 40°38' W 074°08'0 0.0
2018-Feb-17 13:28N 40°38' W 074°08'0 0.0
2018-Feb-17 12:59N 40°38' W 074°08'3 5.3
2018-Feb-17 12:30N 40°41' W 074°09'0 0.1
2018-Feb-17 12:00N 40°41' W 074°09'1 2.3
2018-Feb-17 11:28N 40°40' W 074°09'1 2.5
2018-Feb-17 11:00N 40°39' W 074°09'4 6.7
2018-Feb-17 10:29N 40°39' W 074°04'3 5.5
2018-Feb-17 10:00N 40°37' W 074°03'1 1.0
2018-Feb-17 09:30N 40°36' W 074°02'1 2.4
2018-Feb-17 09:00N 40°37' W 074°03'4 7.7
2018-Feb-17 08:30N 40°38' W 074°08'0 0.0
2018-Feb-17 07:40N 40°38' W 074°08'0 0.0
2018-Feb-17 07:28N 40°38' W 074°08'0 0.0
2018-Feb-17 06:58N 40°38' W 074°08'0 0.0
2018-Feb-17 06:28N 40°38' W 074°08'0 0.0
2018-Feb-17 05:10N 40°38' W 074°08'1 6.7
2018-Feb-17 04:59N 40°39' W 074°06'5 9.7
2018-Feb-17 04:30N 40°41' W 074°01'0 0.3
2018-Feb-17 04:00N 40°41' W 074°01'510.4
2018-Feb-17 03:30N 40°39' W 074°07'3 6.3
2018-Feb-17 03:00N 40°42' W 074°08'0 0.1
2018-Feb-17 02:30N 40°42' W 074°08'1 1.4
2018-Feb-17 02:00N 40°41' W 074°08'2 3.9
2018-Feb-17 01:30N 40°39' W 074°09'3 5.0
2018-Feb-17 01:00N 40°39' W 074°06'2 4.5
2018-Feb-17 00:31N 40°38' W 074°03'0 0.5
2018-Feb-17 00:00N 40°38' W 074°03'4 8.3
2018-Feb-16 23:30N 40°39' W 074°09'3 5.5
2018-Feb-16 23:00N 40°41' W 074°08'1 1.2
2018-Feb-16 22:30N 40°42' W 074°09'0 0.1
2018-Feb-16 21:38N 40°42' W 074°09'1 5.5
2018-Feb-16 21:30N 40°41' W 074°08'3 5.5
2018-Feb-16 21:00N 40°39' W 074°09'2 4.3
2018-Feb-16 20:30N 40°41' W 074°09'1 1.2
2018-Feb-16 20:00N 40°41' W 074°09'2 4.4
2018-Feb-16 19:30N 40°39' W 074°09'1 0.7
2018-Feb-16 18:13N 40°38' W 074°08'0 0.0
2018-Feb-16 18:00N 40°38' W 074°08'0 0.0
2018-Feb-16 17:27N 40°38' W 074°08'0 0.0
2018-Feb-16 17:00N 40°38' W 074°08'0 0.0
2018-Feb-16 16:25N 40°38' W 074°08'0 0.0
2018-Feb-16 15:56N 40°38' W 074°08'0 0.0
2018-Feb-16 15:30N 40°38' W 074°08'0 0.0
2018-Feb-16 15:00N 40°38' W 074°08'0 0.0
2018-Feb-16 14:14N 40°38' W 074°08'0 0.0
2018-Feb-16 14:00N 40°38' W 074°08'0 0.0
2018-Feb-16 13:29N 40°38' W 074°08'0 0.0
2018-Feb-16 13:00N 40°38' W 074°08'2 3.2
2018-Feb-16 12:30N 40°39' W 074°06'1 2.3
2018-Feb-16 12:00N 40°39' W 074°07'1 2.7
2018-Feb-16 11:30N 40°39' W 074°09'1 2.5
2018-Feb-16 10:59N 40°41' W 074°09'0 0.8
2018-Feb-16 10:30N 40°41' W 074°09'2 4.4
2018-Feb-16 09:59N 40°39' W 074°09'1 1.1
2018-Feb-16 09:07N 40°38' W 074°08'0 0.0
2018-Feb-16 02:46N 40°38' W 074°08'1 2.5
2018-Feb-16 02:26N 40°39' W 074°07'0 0.0
2018-Feb-16 01:18N 40°39' W 074°07'0 0.8
2018-Feb-16 00:52N 40°39' W 074°06'1 3.4
2018-Feb-16 00:30N 40°39' W 074°05'2 4.0
2018-Feb-16 00:01N 40°37' W 074°04'2 3.0
2018-Feb-15 23:30N 40°39' W 074°04'3 4.8
2018-Feb-15 22:56N 40°38' W 074°08'0 0.0
2018-Feb-15 22:29N 40°38' W 074°08'0 0.0
2018-Feb-15 22:00N 40°38' W 074°08'2 4.1
2018-Feb-15 21:30N 40°40' W 074°08'0 0.0
2018-Feb-15 21:00N 40°40' W 074°08'1 1.7
2018-Feb-15 20:29N 40°41' W 074°08'1 1.0
2018-Feb-15 19:58N 40°42' W 074°08'3 6.6
2018-Feb-15 19:30N 40°39' W 074°09'1 1.6
2018-Feb-15 18:56N 40°38' W 074°08'0 0.0
2018-Feb-15 18:30N 40°38' W 074°08'0 0.0
2018-Feb-15 17:59N 40°38' W 074°08'0 0.0
2018-Feb-15 17:30N 40°38' W 074°08'0 0.0
2018-Feb-15 15:47N 40°38' W 074°08'0 0.0
2018-Feb-15 15:26N 40°38' W 074°08'0 0.0
2018-Feb-15 13:00N 40°38' W 074°08'3 5.3
2018-Feb-15 12:30N 40°41' W 074°09'0 0.1
2018-Feb-15 12:01N 40°41' W 074°09'1 1.6
2018-Feb-15 11:30N 40°40' W 074°08'2 3.6
2018-Feb-15 10:57N 40°38' W 074°09'2 4.3
2018-Feb-15 10:30N 40°39' W 074°06'2 3.2
2018-Feb-15 10:00N 40°39' W 074°04'3 5.6
2018-Feb-15 09:30N 40°36' W 074°02'4 8.2
2018-Feb-15 08:58N 40°39' W 074°07'0 0.5
2018-Feb-15 08:24N 40°38' W 074°08'0 0.0
2018-Feb-15 07:12N 40°38' W 074°08'0 0.0
2018-Feb-15 06:00N 40°38' W 074°08'0 0.0
2018-Feb-15 05:24N 40°38' W 074°08'0 0.0
2018-Feb-15 05:00N 40°38' W 074°08'0 0.0
2018-Feb-15 04:30N 40°38' W 074°08'0 0.0
2018-Feb-15 03:54N 40°38' W 074°08'0 0.0
2018-Feb-15 03:30N 40°38' W 074°08'0 0.0
2018-Feb-15 03:00N 40°38' W 074°08'0 0.0
2018-Feb-15 02:30N 40°38' W 074°08'0 0.0
2018-Feb-15 02:00N 40°38' W 074°08'0 0.0
2018-Feb-15 01:30N 40°38' W 074°08'1 2.6
2018-Feb-15 01:00N 40°39' W 074°06'2 4.3
2018-Feb-15 00:30N 40°40' W 074°08'2 3.1
2018-Feb-14 23:58N 40°41' W 074°08'0 0.9
2018-Feb-14 23:30N 40°42' W 074°08'0 0.0
2018-Feb-14 22:59N 40°42' W 074°08'0 0.5
2018-Feb-14 22:30N 40°42' W 074°08'2 4.6
2018-Feb-14 21:59N 40°39' W 074°09'2 4.6
2018-Feb-14 21:29N 40°41' W 074°08'1 1.8
2018-Feb-14 21:01N 40°41' W 074°09'0 0.5
2018-Feb-14 20:29N 40°41' W 074°09'1 1.7
2018-Feb-14 20:00N 40°40' W 074°08'2 3.6
2018-Feb-14 19:31N 40°39' W 074°08'3 6.8
2018-Feb-14 19:01N 40°39' W 074°04'2 4.7
2018-Feb-14 18:30N 40°36' W 074°02'3 7.1
2018-Feb-14 18:01N 40°39' W 074°05'2 4.1
2018-Feb-14 17:30N 40°38' W 074°08'0 0.1
2018-Feb-14 17:00N 40°39' W 074°08'3 6.3
2018-Feb-14 16:30N 40°42' W 074°08'0 0.1
2018-Feb-14 16:00N 40°42' W 074°08'2 4.6
2018-Feb-14 15:29N 40°39' W 074°09'3 5.2
2018-Feb-14 15:00N 40°39' W 074°06'2 4.7
2018-Feb-14 14:30N 40°38' W 074°03'1 1.8
2018-Feb-14 14:00N 40°38' W 074°04'0 0.0
2018-Feb-14 13:30N 40°38' W 074°04'1 1.3
2018-Feb-14 13:00N 40°37' W 074°03'2 4.0
2018-Feb-14 12:30N 40°39' W 074°05'0 0.8
2018-Feb-14 12:01N 40°39' W 074°05'0 0.0
2018-Feb-14 11:30N 40°39' W 074°05'2 4.1
2018-Feb-14 11:00N 40°38' W 074°08'1 1.6
2018-Feb-14 10:30N 40°39' W 074°09'1 2.8
2018-Feb-14 10:00N 40°40' W 074°09'1 1.9
2018-Feb-14 09:30N 40°41' W 074°09'0 0.7
2018-Feb-14 08:59N 40°41' W 074°09'0 0.4
2018-Feb-14 08:30N 40°41' W 074°09'0 0.0
2018-Feb-14 08:00N 40°41' W 074°09'0 0.0
2018-Feb-14 07:30N 40°41' W 074°09'0 0.0
2018-Feb-14 07:00N 40°41' W 074°09'3 6.6
2018-Feb-14 06:30N 40°39' W 074°06'2 3.8
2018-Feb-14 05:59N 40°39' W 074°09'1 3.0
2018-Feb-14 05:30N 40°41' W 074°09'0 0.3
2018-Feb-14 04:59N 40°41' W 074°09'1 2.3
2018-Feb-14 04:30N 40°40' W 074°09'1 2.1
2018-Feb-14 03:49N 40°38' W 074°08'0 0.0
2018-Feb-14 03:25N 40°38' W 074°08'0 0.0
2018-Feb-14 02:58N 40°38' W 074°08'0 0.0
2018-Feb-14 02:28N 40°38' W 074°08'0 0.0
2018-Feb-14 01:58N 40°38' W 074°08'0 0.0
2018-Feb-14 01:25N 40°38' W 074°08'0 0.0
2018-Feb-14 00:55N 40°38' W 074°08'0 0.0
2018-Feb-14 00:25N 40°38' W 074°08'1 2.2
2018-Feb-14 00:00N 40°39' W 074°07'1 1.4
2018-Feb-13 23:30N 40°39' W 074°06'0 0.0
2018-Feb-13 23:00N 40°39' W 074°06'2 3.1
2018-Feb-13 22:30N 40°38' W 074°08'0 0.0
2018-Feb-13 22:00N 40°38' W 074°08'0 0.0
2018-Feb-13 18:21N 40°38' W 074°08'0 0.0
2018-Feb-13 17:51N 40°38' W 074°08'0 0.0
2018-Feb-13 17:30N 40°38' W 074°08'0 0.1
2018-Feb-13 17:00N 40°39' W 074°08'0 0.1
2018-Feb-13 16:25N 40°38' W 074°08'0 0.0
2018-Feb-13 15:49N 40°38' W 074°08'0 0.0
2018-Feb-13 15:28N 40°38' W 074°08'0 0.0
2018-Feb-13 14:55N 40°38' W 074°08'0 0.0
2018-Feb-13 14:13N 40°38' W 074°08'0 0.0
2018-Feb-13 13:49N 40°38' W 074°08'0 0.0
2018-Feb-13 13:28N 40°38' W 074°08'4 8.3
2018-Feb-13 13:00N 40°40' W 074°03'2 4.5
2018-Feb-13 12:30N 40°41' W 074°01'2 4.0
2018-Feb-13 12:00N 40°40' W 074°03'3 6.4
2018-Feb-13 11:30N 40°39' W 074°07'2 3.4
2018-Feb-13 11:00N 40°39' W 074°09'0 0.3
2018-Feb-13 10:30N 40°40' W 074°09'0 0.0
2018-Feb-13 10:00N 40°40' W 074°09'0 0.6
2018-Feb-13 09:30N 40°39' W 074°09'1 2.1
2018-Feb-13 08:58N 40°38' W 074°08'0 0.0
2018-Feb-13 08:28N 40°38' W 074°08'0 0.0
2018-Feb-13 07:58N 40°38' W 074°08'0 0.0
2018-Feb-13 07:19N 40°38' W 074°08'0 0.0
2018-Feb-13 06:52N 40°38' W 074°08'0 0.0
2018-Feb-13 06:28N 40°38' W 074°08'0 0.0
2018-Feb-13 05:55N 40°38' W 074°08'0 0.0
2018-Feb-13 05:28N 40°38' W 074°08'0 0.0
2018-Feb-13 04:58N 40°38' W 074°08'0 0.0
2018-Feb-13 04:07N 40°38' W 074°08'0 0.0
2018-Feb-13 03:58N 40°38' W 074°08'0 0.0
2018-Feb-13 03:25N 40°38' W 074°08'0 0.0
2018-Feb-13 02:46N 40°38' W 074°08'0 0.0
2018-Feb-13 02:28N 40°38' W 074°08'0 0.0
2018-Feb-13 01:58N 40°38' W 074°08'0 0.0
2018-Feb-13 01:28N 40°38' W 074°08'0 0.0
2018-Feb-13 00:58N 40°38' W 074°08'2 4.1
2018-Feb-13 00:30N 40°40' W 074°08'1 1.3
2018-Feb-13 00:00N 40°41' W 074°09'0 0.9
2018-Feb-12 23:30N 40°41' W 074°08'2 4.1
2018-Feb-12 23:00N 40°39' W 074°09'3 5.8
2018-Feb-12 22:30N 40°39' W 074°05'2 3.5
2018-Feb-12 22:01N 40°38' W 074°03'4 7.2
2018-Feb-12 21:30N 40°39' W 074°08'3 5.1
2018-Feb-12 21:00N 40°41' W 074°08'0 0.0
2018-Feb-12 20:30N 40°41' W 074°08'1 1.3
2018-Feb-12 20:00N 40°41' W 074°08'2 3.5
2018-Feb-12 19:26N 40°39' W 074°07'3 7.0
2018-Feb-12 19:01N 40°38' W 074°03'4 7.2
2018-Feb-12 18:29N 40°38' W 074°08'0 0.0
2018-Feb-12 17:54N 40°38' W 074°08'2 4.3
2018-Feb-12 17:30N 40°40' W 074°09'0 0.4
2018-Feb-12 16:59N 40°40' W 074°09'1 2.9
2018-Feb-12 16:30N 40°39' W 074°09'3 5.7
2018-Feb-12 16:00N 40°39' W 074°05'4 7.4
2018-Feb-12 15:30N 40°36' W 074°02'4 7.7
2018-Feb-12 15:00N 40°39' W 074°06'2 3.0
2018-Feb-12 14:28N 40°38' W 074°08'0 0.0
2018-Feb-12 13:49N 40°38' W 074°08'0 0.0
2018-Feb-12 13:28N 40°38' W 074°08'0 0.0
2018-Feb-12 12:22N 40°38' W 074°08'0 0.0
2018-Feb-12 11:58N 40°38' W 074°08'0 0.0
2018-Feb-12 11:28N 40°38' W 074°08'0 0.0
2018-Feb-12 10:58N 40°38' W 074°08'0 0.0
2018-Feb-12 10:28N 40°38' W 074°08'0 0.0
2018-Feb-12 09:58N 40°38' W 074°08'0 0.0
2018-Feb-12 09:28N 40°38' W 074°08'0 0.0
2018-Feb-12 08:58N 40°38' W 074°08'0 0.0
2018-Feb-12 08:28N 40°38' W 074°08'0 0.0
2018-Feb-12 07:58N 40°38' W 074°08'0 0.0
2018-Feb-12 07:25N 40°38' W 074°08'0 0.0
2018-Feb-12 06:58N 40°38' W 074°08'0 0.0
2018-Feb-12 06:28N 40°38' W 074°08'0 0.0
2018-Feb-12 05:58N 40°38' W 074°08'0 0.0
2018-Feb-12 05:28N 40°38' W 074°08'0 0.0
2018-Feb-12 04:58N 40°38' W 074°08'0 0.0
2018-Feb-12 04:28N 40°38' W 074°08'3 3.0
2018-Feb-12 03:30N 40°41' W 074°08'0 0.1
2018-Feb-12 03:00N 40°41' W 074°08'2 3.6
2018-Feb-12 02:30N 40°40' W 074°09'2 4.1
2018-Feb-12 01:59N 40°39' W 074°06'2 4.8
2018-Feb-12 01:31N 40°38' W 074°03'0 0.6
2018-Feb-12 01:00N 40°38' W 074°03'1 2.0
2018-Feb-12 00:30N 40°39' W 074°04'2 2.1
2018-Feb-11 23:23N 40°39' W 074°07'1 0.8
2018-Feb-11 22:34N 40°39' W 074°06'0 4.2
2018-Feb-11 22:30N 40°39' W 074°06'2 3.5
2018-Feb-11 22:00N 40°38' W 074°03'2 3.1
2018-Feb-11 21:30N 40°37' W 074°03'1 1.2
2018-Feb-11 21:00N 40°37' W 074°04'3 4.4
2018-Feb-11 20:14N 40°38' W 074°08'0 0.0
2018-Feb-11 19:56N 40°38' W 074°08'0 0.0
2018-Feb-11 19:23N 40°38' W 074°08'0 0.0
2018-Feb-11 18:56N 40°38' W 074°08'0 0.0
2018-Feb-11 18:26N 40°38' W 074°08'0 0.0
2018-Feb-11 17:56N 40°38' W 074°08'0 0.0
2018-Feb-11 17:14N 40°38' W 074°08'0 0.0
2018-Feb-11 16:44N 40°38' W 074°08'0 0.0
2018-Feb-11 16:20N 40°38' W 074°08'0 0.0
2018-Feb-11 15:56N 40°38' W 074°08'0 0.0
2018-Feb-11 15:20N 40°38' W 074°08'0 0.0
2018-Feb-11 14:53N 40°38' W 074°08'0 0.0
2018-Feb-11 14:26N 40°38' W 074°08'0 0.0
2018-Feb-11 13:59N 40°38' W 074°08'0 0.0
2018-Feb-11 13:26N 40°38' W 074°08'0 0.0
2018-Feb-11 13:00N 40°38' W 074°08'2 4.8
2018-Feb-11 12:30N 40°41' W 074°09'0 0.0
2018-Feb-11 12:00N 40°41' W 074°09'1 1.7
2018-Feb-11 11:30N 40°40' W 074°08'1 2.6
2018-Feb-11 10:59N 40°39' W 074°08'2 4.7
2018-Feb-11 10:31N 40°39' W 074°05'3 5.5
2018-Feb-11 09:59N 40°37' W 074°03'0 0.5
2018-Feb-11 09:30N 40°37' W 074°03'3 6.0
2018-Feb-11 09:01N 40°39' W 074°05'2 4.3
2018-Feb-11 08:30N 40°38' W 074°08'0 0.0
2018-Feb-11 08:00N 40°38' W 074°08'0 0.0
2018-Feb-11 07:30N 40°38' W 074°08'0 0.0
2018-Feb-11 07:00N 40°38' W 074°08'0 0.0
2018-Feb-11 06:30N 40°38' W 074°08'0 0.0
2018-Feb-11 06:00N 40°38' W 074°08'0 0.0
2018-Feb-11 05:30N 40°38' W 074°08'0 0.1
2018-Feb-11 05:00N 40°39' W 074°08'1 1.3
2018-Feb-11 04:30N 40°39' W 074°09'2 3.9
2018-Feb-11 04:00N 40°40' W 074°08'1 2.1
2018-Feb-11 03:30N 40°41' W 074°09'0 0.1
2018-Feb-11 02:56N 40°41' W 074°09'0 0.0
2018-Feb-11 02:26N 40°41' W 074°09'0 0.0
2018-Feb-11 01:59N 40°41' W 074°09'0 0.0
2018-Feb-11 01:29N 40°41' W 074°09'1 1.8
2018-Feb-11 01:00N 40°41' W 074°08'0 0.1
2018-Feb-11 00:29N 40°41' W 074°08'3 5.9
2018-Feb-11 00:00N 40°39' W 074°09'4 7.5
2018-Feb-10 23:30N 40°39' W 074°04'3 6.1
2018-Feb-10 23:00N 40°38' W 074°08'0 0.1
2018-Feb-10 22:30N 40°38' W 074°08'0 0.0
2018-Feb-10 22:00N 40°38' W 074°08'0 0.0
2018-Feb-10 21:30N 40°38' W 074°08'0 0.0
2018-Feb-10 21:00N 40°38' W 074°08'0 0.0
2018-Feb-10 20:30N 40°38' W 074°08'1 2.1
2018-Feb-10 20:00N 40°39' W 074°09'2 4.9
2018-Feb-10 19:30N 40°41' W 074°08'0 0.8
2018-Feb-10 19:01N 40°42' W 074°09'3 5.3
2018-Feb-10 18:30N 40°39' W 074°09'1 0.6
2018-Feb-10 16:47N 40°38' W 074°08'0 0.0
2018-Feb-10 16:21N 40°38' W 074°08'1 2.2
2018-Feb-10 15:59N 40°39' W 074°09'1 2.2
2018-Feb-10 15:29N 40°40' W 074°09'0 0.2
2018-Feb-10 15:00N 40°40' W 074°09'1 2.4
2018-Feb-10 14:30N 40°39' W 074°08'0 0.3
2018-Feb-10 13:12N 40°38' W 074°08'0 0.0
2018-Feb-10 12:54N 40°38' W 074°08'0 0.0
2018-Feb-10 12:30N 40°38' W 074°08'0 0.0
2018-Feb-10 11:54N 40°38' W 074°08'0 0.0
2018-Feb-10 11:27N 40°38' W 074°08'1 2.2
2018-Feb-10 10:59N 40°39' W 074°09'2 3.6
2018-Feb-10 10:30N 40°41' W 074°09'0 0.2
2018-Feb-10 10:00N 40°41' W 074°09'3 5.2
2018-Feb-10 09:30N 40°38' W 074°08'0 0.0
2018-Feb-10 08:59N 40°38' W 074°08'1 2.8
2018-Feb-10 08:30N 40°40' W 074°09'1 2.2
2018-Feb-10 08:00N 40°41' W 074°09'2 4.5
2018-Feb-10 07:30N 40°39' W 074°08'0 0.6
2018-Feb-10 06:53N 40°38' W 074°08'0 0.0
2018-Feb-10 06:14N 40°38' W 074°08'0 0.0
2018-Feb-10 05:59N 40°38' W 074°08'0 0.0
2018-Feb-10 05:29N 40°38' W 074°08'0 0.0
2018-Feb-10 04:50N 40°38' W 074°08'0 0.1
2018-Feb-10 04:31N 40°38' W 074°08'4 7.1
2018-Feb-10 04:00N 40°37' W 074°03'0 0.3
2018-Feb-10 03:29N 40°37' W 074°03'2 4.9
2018-Feb-10 03:00N 40°39' W 074°05'0 0.4
2018-Feb-10 02:30N 40°39' W 074°05'0 0.0
2018-Feb-10 01:59N 40°39' W 074°05'2 4.0
2018-Feb-10 01:29N 40°39' W 074°08'2 5.1
2018-Feb-10 01:00N 40°41' W 074°08'0 0.7
2018-Feb-10 00:30N 40°41' W 074°08'0 0.0
2018-Feb-10 00:00N 40°41' W 074°08'1 2.4
2018-Feb-09 23:30N 40°40' W 074°08'2 3.0
2018-Feb-09 22:58N 40°39' W 074°09'1 7.0
2018-Feb-09 22:46N 40°40' W 074°08'  
Track history (hours):
 
Tides and Currents Weather Stations Pressure Air Temp Water Temp Dewpoint Dewpoint Depression Visibility Wind Speed Wind Dir Waves Ship Positions

Jrt Moran

Owner: Moran Towing Corporation, New Canaan, CT. More information available from US FCC via Universal Licensing System and Coast Guard Vessel Documentation Center.

Last reported at 2018-Feb-19 20:01 UTC. Time now 2018-Feb-19 20:12 UTC.
Position N 40°39' W 074°07'.

Length 28 m; draft 4.6 m.

Type: Tug. MMSI: 338073000.

Date/timePositionNaut miles runAvg speedWind from/ knotsBaromVisibWave heightAir tempDewpointWater temp
2018-Feb-19 20:01N 40°39' W 074°07'2 4.8
2018-Feb-19 19:30N 40°39' W 074°04'3 5.6
2018-Feb-19 19:01N 40°36' W 074°03'4 7.0
2018-Feb-19 18:30N 40°39' W 074°06'1 2.8
2018-Feb-19 17:59N 40°38' W 074°08'0 0.0
2018-Feb-19 17:28N 40°38' W 074°08'0 0.0
2018-Feb-19 16:58N 40°38' W 074°08'0 0.0
2018-Feb-19 16:22N 40°38' W 074°08'0 0.0
2018-Feb-19 15:58N 40°38' W 074°08'1 2.1
2018-Feb-19 15:29N 40°39' W 074°07'0 0.0
2018-Feb-19 14:59N 40°39' W 074°07'0 0.0
2018-Feb-19 14:17N 40°39' W 074°07'0 0.0
2018-Feb-19 12:49N 40°39' W 074°07'2 5.4
2018-Feb-19 12:30N 40°39' W 074°09'2 4.2
2018-Feb-19 12:00N 40°41' W 074°09'0 0.1
2018-Feb-19 11:30N 40°41' W 074°08'1 2.9
2018-Feb-19 11:00N 40°39' W 074°09'2 4.0
2018-Feb-19 10:30N 40°39' W 074°06'2 4.5
2018-Feb-19 10:00N 40°38' W 074°03'3 6.9
2018-Feb-19 09:30N 40°38' W 074°08'0 0.0
2018-Feb-19 08:59N 40°38' W 074°08'0 0.0
2018-Feb-19 08:23N 40°38' W 074°08'0 0.0
2018-Feb-19 07:56N 40°38' W 074°08'0 0.0
2018-Feb-19 07:29N 40°38' W 074°08'0 0.0
2018-Feb-19 06:59N 40°38' W 074°08'0 0.0
2018-Feb-19 06:29N 40°38' W 074°08'0 0.0
2018-Feb-19 05:56N 40°38' W 074°08'0 0.0
2018-Feb-19 05:26N 40°38' W 074°08'0 0.0
2018-Feb-19 04:59N 40°38' W 074°08'0 0.0
2018-Feb-19 04:23N 40°38' W 074°08'0 0.0
2018-Feb-19 03:59N 40°38' W 074°08'2 3.2
2018-Feb-19 03:30N 40°39' W 074°06'0 0.4
2018-Feb-19 03:00N 40°39' W 074°06'2 4.5
2018-Feb-19 02:30N 40°39' W 074°09'2 3.5
2018-Feb-19 02:00N 40°41' W 074°08'1 1.3
2018-Feb-19 01:30N 40°41' W 074°09'1 1.3
2018-Feb-19 00:59N 40°40' W 074°08'0 0.0
2018-Feb-19 00:30N 40°40' W 074°08'0 0.0
2018-Feb-19 00:00N 40°40' W 074°08'0 0.0
2018-Feb-18 23:30N 40°40' W 074°08'0 0.0
2018-Feb-18 23:00N 40°40' W 074°08'1 1.2
2018-Feb-18 22:30N 40°40' W 074°09'0 0.3
2018-Feb-18 22:00N 40°40' W 074°09'2 3.1
2018-Feb-18 21:30N 40°39' W 074°07'1 2.4
2018-Feb-18 21:00N 40°39' W 074°06'1 2.4
2018-Feb-18 20:29N 40°39' W 074°07'1 1.2
2018-Feb-18 20:00N 40°39' W 074°08'2 4.0
2018-Feb-18 19:28N 40°41' W 074°09'1 1.1
2018-Feb-18 19:00N 40°41' W 074°09'2 4.2
2018-Feb-18 18:30N 40°39' W 074°09'1 2.0
2018-Feb-18 18:00N 40°38' W 074°08'0 0.0
2018-Feb-18 17:19N 40°38' W 074°08'0 0.0
2018-Feb-18 16:34N 40°38' W 074°08'0 0.0
2018-Feb-18 14:22N 40°38' W 074°08'1 2.5
2018-Feb-18 14:00N 40°39' W 074°07'0 0.1
2018-Feb-18 13:30N 40°39' W 074°07'1 0.7
2018-Feb-18 12:03N 40°38' W 074°08'0 0.0
2018-Feb-18 11:18N 40°38' W 074°08'2 5.3
2018-Feb-18 11:00N 40°40' W 074°08'1 1.7
2018-Feb-18 10:30N 40°41' W 074°09'0 0.5
2018-Feb-18 09:59N 40°41' W 074°09'2 3.4
2018-Feb-18 09:30N 40°39' W 074°09'2 3.3
2018-Feb-18 09:00N 40°39' W 074°07'2 4.9
2018-Feb-18 08:30N 40°39' W 074°04'1 2.6
2018-Feb-18 08:00N 40°37' W 074°03'4 8.0
2018-Feb-18 07:30N 40°39' W 074°08'4 7.6
2018-Feb-18 06:57N 40°36' W 074°12'2 4.5
2018-Feb-18 06:30N 40°38' W 074°12'0 0.3
2018-Feb-18 06:00N 40°38' W 074°12'2 5.0
2018-Feb-18 05:30N 40°39' W 074°09'1 0.9
2018-Feb-18 04:14N 40°38' W 074°08'0 0.0
2018-Feb-18 03:05N 40°38' W 074°08'0 0.0
2018-Feb-18 02:51N 40°38' W 074°08'0 0.0
2018-Feb-18 02:30N 40°38' W 074°08'0 0.0
2018-Feb-18 01:16N 40°38' W 074°08'0 0.0
2018-Feb-18 00:38N 40°38' W 074°08'0 0.0
2018-Feb-18 00:30N 40°38' W 074°08'1 1.1
2018-Feb-18 00:00N 40°39' W 074°07'0 0.6
2018-Feb-17 23:30N 40°39' W 074°07'0 0.4
2018-Feb-17 22:51N 40°38' W 074°08'0 0.0
2018-Feb-17 22:21N 40°38' W 074°08'0 0.0
2018-Feb-17 20:58N 40°38' W 074°08'0 0.8
2018-Feb-17 20:30N 40°39' W 074°07'1 3.0
2018-Feb-17 20:00N 40°40' W 074°09'0 0.3
2018-Feb-17 19:30N 40°40' W 074°09'1 2.0
2018-Feb-17 18:59N 40°39' W 074°09'1 0.9
2018-Feb-17 18:10N 40°38' W 074°08'0 0.0
2018-Feb-17 17:58N 40°38' W 074°08'0 0.0
2018-Feb-17 17:04N 40°38' W 074°08'0 0.0
2018-Feb-17 16:52N 40°38' W 074°08'0 0.0
2018-Feb-17 14:37N 40°38' W 074°08'0 0.0
2018-Feb-17 14:10N 40°38' W 074°08'0 0.0
2018-Feb-17 13:58N 40°38' W 074°08'0 0.0
2018-Feb-17 13:28N 40°38' W 074°08'0 0.0
2018-Feb-17 12:59N 40°38' W 074°08'3 5.3
2018-Feb-17 12:30N 40°41' W 074°09'0 0.1
2018-Feb-17 12:00N 40°41' W 074°09'1 2.3
2018-Feb-17 11:28N 40°40' W 074°09'1 2.5
2018-Feb-17 11:00N 40°39' W 074°09'4 6.7
2018-Feb-17 10:29N 40°39' W 074°04'3 5.5
2018-Feb-17 10:00N 40°37' W 074°03'1 1.0
2018-Feb-17 09:30N 40°36' W 074°02'1 2.4
2018-Feb-17 09:00N 40°37' W 074°03'4 7.7
2018-Feb-17 08:30N 40°38' W 074°08'0 0.0
2018-Feb-17 07:40N 40°38' W 074°08'0 0.0
2018-Feb-17 07:28N 40°38' W 074°08'0 0.0
2018-Feb-17 06:58N 40°38' W 074°08'0 0.0
2018-Feb-17 06:28N 40°38' W 074°08'0 0.0
2018-Feb-17 05:10N 40°38' W 074°08'1 6.7
2018-Feb-17 04:59N 40°39' W 074°06'5 9.7
2018-Feb-17 04:30N 40°41' W 074°01'0 0.3
2018-Feb-17 04:00N 40°41' W 074°01'510.4
2018-Feb-17 03:30N 40°39' W 074°07'3 6.3
2018-Feb-17 03:00N 40°42' W 074°08'0 0.1
2018-Feb-17 02:30N 40°42' W 074°08'1 1.4
2018-Feb-17 02:00N 40°41' W 074°08'2 3.9
2018-Feb-17 01:30N 40°39' W 074°09'3 5.0
2018-Feb-17 01:00N 40°39' W 074°06'2 4.5
2018-Feb-17 00:31N 40°38' W 074°03'0 0.5
2018-Feb-17 00:00N 40°38' W 074°03'4 8.3
2018-Feb-16 23:30N 40°39' W 074°09'3 5.5
2018-Feb-16 23:00N 40°41' W 074°08'1 1.2
2018-Feb-16 22:30N 40°42' W 074°09'0 0.1
2018-Feb-16 21:38N 40°42' W 074°09'1 5.5
2018-Feb-16 21:30N 40°41' W 074°08'3 5.5
2018-Feb-16 21:00N 40°39' W 074°09'2 4.3
2018-Feb-16 20:30N 40°41' W 074°09'1 1.2
2018-Feb-16 20:00N 40°41' W 074°09'2 4.4
2018-Feb-16 19:30N 40°39' W 074°09'1 0.7
2018-Feb-16 18:13N 40°38' W 074°08'0 0.0
2018-Feb-16 18:00N 40°38' W 074°08'0 0.0
2018-Feb-16 17:27N 40°38' W 074°08'0 0.0
2018-Feb-16 17:00N 40°38' W 074°08'0 0.0
2018-Feb-16 16:25N 40°38' W 074°08'0 0.0
2018-Feb-16 15:56N 40°38' W 074°08'0 0.0
2018-Feb-16 15:30N 40°38' W 074°08'0 0.0
2018-Feb-16 15:00N 40°38' W 074°08'0 0.0
2018-Feb-16 14:14N 40°38' W 074°08'0 0.0
2018-Feb-16 14:00N 40°38' W 074°08'0 0.0
2018-Feb-16 13:29N 40°38' W 074°08'0 0.0
2018-Feb-16 13:00N 40°38' W 074°08'2 3.2
2018-Feb-16 12:30N 40°39' W 074°06'1 2.3
2018-Feb-16 12:00N 40°39' W 074°07'1 2.7
2018-Feb-16 11:30N 40°39' W 074°09'1 2.5
2018-Feb-16 10:59N 40°41' W 074°09'0 0.8
2018-Feb-16 10:30N 40°41' W 074°09'2 4.4
2018-Feb-16 09:59N 40°39' W 074°09'1 1.1
2018-Feb-16 09:07N 40°38' W 074°08'0 0.0
2018-Feb-16 02:46N 40°38' W 074°08'1 2.5
2018-Feb-16 02:26N 40°39' W 074°07'0 0.0
2018-Feb-16 01:18N 40°39' W 074°07'0 0.8
2018-Feb-16 00:52N 40°39' W 074°06'1 3.4
2018-Feb-16 00:30N 40°39' W 074°05'2 4.0
2018-Feb-16 00:01N 40°37' W 074°04'2 3.0
2018-Feb-15 23:30N 40°39' W 074°04'3 4.8
2018-Feb-15 22:56N 40°38' W 074°08'0 0.0
2018-Feb-15 22:29N 40°38' W 074°08'0 0.0
2018-Feb-15 22:00N 40°38' W 074°08'2 4.1
2018-Feb-15 21:30N 40°40' W 074°08'0 0.0
2018-Feb-15 21:00N 40°40' W 074°08'1 1.7
2018-Feb-15 20:29N 40°41' W 074°08'1 1.0
2018-Feb-15 19:58N 40°42' W 074°08'3 6.6
2018-Feb-15 19:30N 40°39' W 074°09'1 1.6
2018-Feb-15 18:56N 40°38' W 074°08'0 0.0
2018-Feb-15 18:30N 40°38' W 074°08'0 0.0
2018-Feb-15 17:59N 40°38' W 074°08'0 0.0
2018-Feb-15 17:30N 40°38' W 074°08'0 0.0
2018-Feb-15 15:47N 40°38' W 074°08'0 0.0
2018-Feb-15 15:26N 40°38' W 074°08'0 0.0
2018-Feb-15 13:00N 40°38' W 074°08'3 5.3
2018-Feb-15 12:30N 40°41' W 074°09'0 0.1
2018-Feb-15 12:01N 40°41' W 074°09'1 1.6
2018-Feb-15 11:30N 40°40' W 074°08'2 3.6
2018-Feb-15 10:57N 40°38' W 074°09'2 4.3
2018-Feb-15 10:30N 40°39' W 074°06'2 3.2
2018-Feb-15 10:00N 40°39' W 074°04'3 5.6
2018-Feb-15 09:30N 40°36' W 074°02'4 8.2
2018-Feb-15 08:58N 40°39' W 074°07'0 0.5
2018-Feb-15 08:24N 40°38' W 074°08'0 0.0
2018-Feb-15 07:12N 40°38' W 074°08'0 0.0
2018-Feb-15 06:00N 40°38' W 074°08'0 0.0
2018-Feb-15 05:24N 40°38' W 074°08'0 0.0
2018-Feb-15 05:00N 40°38' W 074°08'0 0.0
2018-Feb-15 04:30N 40°38' W 074°08'0 0.0
2018-Feb-15 03:54N 40°38' W 074°08'0 0.0
2018-Feb-15 03:30N 40°38' W 074°08'0 0.0
2018-Feb-15 03:00N 40°38' W 074°08'0 0.0
2018-Feb-15 02:30N 40°38' W 074°08'0 0.0
2018-Feb-15 02:00N 40°38' W 074°08'0 0.0
2018-Feb-15 01:30N 40°38' W 074°08'1 2.6
2018-Feb-15 01:00N 40°39' W 074°06'2 4.3
2018-Feb-15 00:30N 40°40' W 074°08'2 3.1
2018-Feb-14 23:58N 40°41' W 074°08'0 0.9
2018-Feb-14 23:30N 40°42' W 074°08'0 0.0
2018-Feb-14 22:59N 40°42' W 074°08'0 0.5
2018-Feb-14 22:30N 40°42' W 074°08'2 4.6
2018-Feb-14 21:59N 40°39' W 074°09'2 4.6
2018-Feb-14 21:29N 40°41' W 074°08'1 1.8
2018-Feb-14 21:01N 40°41' W 074°09'0 0.5
2018-Feb-14 20:29N 40°41' W 074°09'1 1.7
2018-Feb-14 20:00N 40°40' W 074°08'2 3.6
2018-Feb-14 19:31N 40°39' W 074°08'3 6.8
2018-Feb-14 19:01N 40°39' W 074°04'2 4.7
2018-Feb-14 18:30N 40°36' W 074°02'3 7.1
2018-Feb-14 18:01N 40°39' W 074°05'2 4.1
2018-Feb-14 17:30N 40°38' W 074°08'0 0.1
2018-Feb-14 17:00N 40°39' W 074°08'3 6.3
2018-Feb-14 16:30N 40°42' W 074°08'0 0.1
2018-Feb-14 16:00N 40°42' W 074°08'2 4.6
2018-Feb-14 15:29N 40°39' W 074°09'3 5.2
2018-Feb-14 15:00N 40°39' W 074°06'2 4.7
2018-Feb-14 14:30N 40°38' W 074°03'1 1.8
2018-Feb-14 14:00N 40°38' W 074°04'0 0.0
2018-Feb-14 13:30N 40°38' W 074°04'1 1.3
2018-Feb-14 13:00N 40°37' W 074°03'2 4.0
2018-Feb-14 12:30N 40°39' W 074°05'0 0.8
2018-Feb-14 12:01N 40°39' W 074°05'0 0.0
2018-Feb-14 11:30N 40°39' W 074°05'2 4.1
2018-Feb-14 11:00N 40°38' W 074°08'1 1.6
2018-Feb-14 10:30N 40°39' W 074°09'1 2.8
2018-Feb-14 10:00N 40°40' W 074°09'1 1.9
2018-Feb-14 09:30N 40°41' W 074°09'0 0.7
2018-Feb-14 08:59N 40°41' W 074°09'0 0.4
2018-Feb-14 08:30N 40°41' W 074°09'0 0.0
2018-Feb-14 08:00N 40°41' W 074°09'0 0.0
2018-Feb-14 07:30N 40°41' W 074°09'0 0.0
2018-Feb-14 07:00N 40°41' W 074°09'3 6.6
2018-Feb-14 06:30N 40°39' W 074°06'2 3.8
2018-Feb-14 05:59N 40°39' W 074°09'1 3.0
2018-Feb-14 05:30N 40°41' W 074°09'0 0.3
2018-Feb-14 04:59N 40°41' W 074°09'1 2.3
2018-Feb-14 04:30N 40°40' W 074°09'1 2.1
2018-Feb-14 03:49N 40°38' W 074°08'0 0.0
2018-Feb-14 03:25N 40°38' W 074°08'0 0.0
2018-Feb-14 02:58N 40°38' W 074°08'0 0.0
2018-Feb-14 02:28N 40°38' W 074°08'0 0.0
2018-Feb-14 01:58N 40°38' W 074°08'0 0.0
2018-Feb-14 01:25N 40°38' W 074°08'0 0.0
2018-Feb-14 00:55N 40°38' W 074°08'0 0.0
2018-Feb-14 00:25N 40°38' W 074°08'1 2.2
2018-Feb-14 00:00N 40°39' W 074°07'1 1.4
2018-Feb-13 23:30N 40°39' W 074°06'0 0.0
2018-Feb-13 23:00N 40°39' W 074°06'2 3.1
2018-Feb-13 22:30N 40°38' W 074°08'0 0.0
2018-Feb-13 22:00N 40°38' W 074°08'0 0.0
2018-Feb-13 18:21N 40°38' W 074°08'0 0.0
2018-Feb-13 17:51N 40°38' W 074°08'0 0.0
2018-Feb-13 17:30N 40°38' W 074°08'0 0.1
2018-Feb-13 17:00N 40°39' W 074°08'0 0.1
2018-Feb-13 16:25N 40°38' W 074°08'0 0.0
2018-Feb-13 15:49N 40°38' W 074°08'0 0.0
2018-Feb-13 15:28N 40°38' W 074°08'0 0.0
2018-Feb-13 14:55N 40°38' W 074°08'0 0.0
2018-Feb-13 14:13N 40°38' W 074°08'0 0.0
2018-Feb-13 13:49N 40°38' W 074°08'0 0.0
2018-Feb-13 13:28N 40°38' W 074°08'4 8.3
2018-Feb-13 13:00N 40°40' W 074°03'2 4.5
2018-Feb-13 12:30N 40°41' W 074°01'2 4.0
2018-Feb-13 12:00N 40°40' W 074°03'3 6.4
2018-Feb-13 11:30N 40°39' W 074°07'2 3.4
2018-Feb-13 11:00N 40°39' W 074°09'0 0.3
2018-Feb-13 10:30N 40°40' W 074°09'0 0.0
2018-Feb-13 10:00N 40°40' W 074°09'0 0.6
2018-Feb-13 09:30N 40°39' W 074°09'1 2.1
2018-Feb-13 08:58N 40°38' W 074°08'0 0.0
2018-Feb-13 08:28N 40°38' W 074°08'0 0.0
2018-Feb-13 07:58N 40°38' W 074°08'0 0.0
2018-Feb-13 07:19N 40°38' W 074°08'0 0.0
2018-Feb-13 06:52N 40°38' W 074°08'0 0.0
2018-Feb-13 06:28N 40°38' W 074°08'0 0.0
2018-Feb-13 05:55N 40°38' W 074°08'0 0.0
2018-Feb-13 05:28N 40°38' W 074°08'0 0.0
2018-Feb-13 04:58N 40°38' W 074°08'0 0.0
2018-Feb-13 04:07N 40°38' W 074°08'0 0.0
2018-Feb-13 03:58N 40°38' W 074°08'0 0.0
2018-Feb-13 03:25N 40°38' W 074°08'0 0.0
2018-Feb-13 02:46N 40°38' W 074°08'0 0.0
2018-Feb-13 02:28N 40°38' W 074°08'0 0.0
2018-Feb-13 01:58N 40°38' W 074°08'0 0.0
2018-Feb-13 01:28N 40°38' W 074°08'0 0.0
2018-Feb-13 00:58N 40°38' W 074°08'2 4.1
2018-Feb-13 00:30N 40°40' W 074°08'1 1.3
2018-Feb-13 00:00N 40°41' W 074°09'0 0.9
2018-Feb-12 23:30N 40°41' W 074°08'2 4.1
2018-Feb-12 23:00N 40°39' W 074°09'3 5.8
2018-Feb-12 22:30N 40°39' W 074°05'2 3.5
2018-Feb-12 22:01N 40°38' W 074°03'4 7.2
2018-Feb-12 21:30N 40°39' W 074°08'3 5.1
2018-Feb-12 21:00N 40°41' W 074°08'0 0.0
2018-Feb-12 20:30N 40°41' W 074°08'1 1.3
2018-Feb-12 20:00N 40°41' W 074°08'2 3.5
2018-Feb-12 19:26N 40°39' W 074°07'3 7.0
2018-Feb-12 19:01N 40°38' W 074°03'4 7.2
2018-Feb-12 18:29N 40°38' W 074°08'0 0.0
2018-Feb-12 17:54N 40°38' W 074°08'2 4.3
2018-Feb-12 17:30N 40°40' W 074°09'0 0.4
2018-Feb-12 16:59N 40°40' W 074°09'1 2.9
2018-Feb-12 16:30N 40°39' W 074°09'3 5.7
2018-Feb-12 16:00N 40°39' W 074°05'4 7.4
2018-Feb-12 15:30N 40°36' W 074°02'4 7.7
2018-Feb-12 15:00N 40°39' W 074°06'2 3.0
2018-Feb-12 14:28N 40°38' W 074°08'0 0.0
2018-Feb-12 13:49N 40°38' W 074°08'0 0.0
2018-Feb-12 13:28N 40°38' W 074°08'0 0.0
2018-Feb-12 12:22N 40°38' W 074°08'0 0.0
2018-Feb-12 11:58N 40°38' W 074°08'0 0.0
2018-Feb-12 11:28N 40°38' W 074°08'0 0.0
2018-Feb-12 10:58N 40°38' W 074°08'0 0.0
2018-Feb-12 10:28N 40°38' W 074°08'0 0.0
2018-Feb-12 09:58N 40°38' W 074°08'0 0.0
2018-Feb-12 09:28N 40°38' W 074°08'0 0.0
2018-Feb-12 08:58N 40°38' W 074°08'0 0.0
2018-Feb-12 08:28N 40°38' W 074°08'0 0.0
2018-Feb-12 07:58N 40°38' W 074°08'0 0.0
2018-Feb-12 07:25N 40°38' W 074°08'0 0.0
2018-Feb-12 06:58N 40°38' W 074°08'0 0.0
2018-Feb-12 06:28N 40°38' W 074°08'0 0.0
2018-Feb-12 05:58N 40°38' W 074°08'0 0.0
2018-Feb-12 05:28N 40°38' W 074°08'0 0.0
2018-Feb-12 04:58N 40°38' W 074°08'0 0.0
2018-Feb-12 04:28N 40°38' W 074°08'3 3.0
2018-Feb-12 03:30N 40°41' W 074°08'0 0.1
2018-Feb-12 03:00N 40°41' W 074°08'2 3.6
2018-Feb-12 02:30N 40°40' W 074°09'2 4.1
2018-Feb-12 01:59N 40°39' W 074°06'2 4.8
2018-Feb-12 01:31N 40°38' W 074°03'0 0.6
2018-Feb-12 01:00N 40°38' W 074°03'1 2.0
2018-Feb-12 00:30N 40°39' W 074°04'2 2.1
2018-Feb-11 23:23N 40°39' W 074°07'1 0.8
2018-Feb-11 22:34N 40°39' W 074°06'0 4.2
2018-Feb-11 22:30N 40°39' W 074°06'2 3.5
2018-Feb-11 22:00N 40°38' W 074°03'2 3.1
2018-Feb-11 21:30N 40°37' W 074°03'1 1.2
2018-Feb-11 21:00N 40°37' W 074°04'3 4.4
2018-Feb-11 20:14N 40°38' W 074°08'0 0.0
2018-Feb-11 19:56N 40°38' W 074°08'0 0.0
2018-Feb-11 19:23N 40°38' W 074°08'0 0.0
2018-Feb-11 18:56N 40°38' W 074°08'0 0.0
2018-Feb-11 18:26N 40°38' W 074°08'0 0.0
2018-Feb-11 17:56N 40°38' W 074°08'0 0.0
2018-Feb-11 17:14N 40°38' W 074°08'0 0.0
2018-Feb-11 16:44N 40°38' W 074°08'0 0.0
2018-Feb-11 16:20N 40°38' W 074°08'0 0.0
2018-Feb-11 15:56N 40°38' W 074°08'0 0.0
2018-Feb-11 15:20N 40°38' W 074°08'0 0.0
2018-Feb-11 14:53N 40°38' W 074°08'0 0.0
2018-Feb-11 14:26N 40°38' W 074°08'0 0.0
2018-Feb-11 13:59N 40°38' W 074°08'0 0.0
2018-Feb-11 13:26N 40°38' W 074°08'0 0.0
2018-Feb-11 13:00N 40°38' W 074°08'2 4.8
2018-Feb-11 12:30N 40°41' W 074°09'0 0.0
2018-Feb-11 12:00N 40°41' W 074°09'1 1.7
2018-Feb-11 11:30N 40°40' W 074°08'1 2.6
2018-Feb-11 10:59N 40°39' W 074°08'2 4.7
2018-Feb-11 10:31N 40°39' W 074°05'3 5.5
2018-Feb-11 09:59N 40°37' W 074°03'0 0.5
2018-Feb-11 09:30N 40°37' W 074°03'3 6.0
2018-Feb-11 09:01N 40°39' W 074°05'2 4.3
2018-Feb-11 08:30N 40°38' W 074°08'0 0.0
2018-Feb-11 08:00N 40°38' W 074°08'0 0.0
2018-Feb-11 07:30N 40°38' W 074°08'0 0.0
2018-Feb-11 07:00N 40°38' W 074°08'0 0.0
2018-Feb-11 06:30N 40°38' W 074°08'0 0.0
2018-Feb-11 06:00N 40°38' W 074°08'0 0.0
2018-Feb-11 05:30N 40°38' W 074°08'0 0.1
2018-Feb-11 05:00N 40°39' W 074°08'1 1.3
2018-Feb-11 04:30N 40°39' W 074°09'2 3.9
2018-Feb-11 04:00N 40°40' W 074°08'1 2.1
2018-Feb-11 03:30N 40°41' W 074°09'0 0.1
2018-Feb-11 02:56N 40°41' W 074°09'0 0.0
2018-Feb-11 02:26N 40°41' W 074°09'0 0.0
2018-Feb-11 01:59N 40°41' W 074°09'0 0.0
2018-Feb-11 01:29N 40°41' W 074°09'1 1.8
2018-Feb-11 01:00N 40°41' W 074°08'0 0.1
2018-Feb-11 00:29N 40°41' W 074°08'3 5.9
2018-Feb-11 00:00N 40°39' W 074°09'4 7.5
2018-Feb-10 23:30N 40°39' W 074°04'3 6.1
2018-Feb-10 23:00N 40°38' W 074°08'0 0.1
2018-Feb-10 22:30N 40°38' W 074°08'0 0.0
2018-Feb-10 22:00N 40°38' W 074°08'0 0.0
2018-Feb-10 21:30N 40°38' W 074°08'0 0.0
2018-Feb-10 21:00N 40°38' W 074°08'0 0.0
2018-Feb-10 20:30N 40°38' W 074°08'1 2.1
2018-Feb-10 20:00N 40°39' W 074°09'2 4.9
2018-Feb-10 19:30N 40°41' W 074°08'0 0.8
2018-Feb-10 19:01N 40°42' W 074°09'3 5.3
2018-Feb-10 18:30N 40°39' W 074°09'1 0.6
2018-Feb-10 16:47N 40°38' W 074°08'0 0.0
2018-Feb-10 16:21N 40°38' W 074°08'1 2.2
2018-Feb-10 15:59N 40°39' W 074°09'1 2.2
2018-Feb-10 15:29N 40°40' W 074°09'0 0.2
2018-Feb-10 15:00N 40°40' W 074°09'1 2.4
2018-Feb-10 14:30N 40°39' W 074°08'0 0.3
2018-Feb-10 13:12N 40°38' W 074°08'0 0.0
2018-Feb-10 12:54N 40°38' W 074°08'0 0.0
2018-Feb-10 12:30N 40°38' W 074°08'0 0.0
2018-Feb-10 11:54N 40°38' W 074°08'0 0.0
2018-Feb-10 11:27N 40°38' W 074°08'1 2.2
2018-Feb-10 10:59N 40°39' W 074°09'2 3.6
2018-Feb-10 10:30N 40°41' W 074°09'0 0.2
2018-Feb-10 10:00N 40°41' W 074°09'3 5.2
2018-Feb-10 09:30N 40°38' W 074°08'0 0.0
2018-Feb-10 08:59N 40°38' W 074°08'1 2.8
2018-Feb-10 08:30N 40°40' W 074°09'1 2.2
2018-Feb-10 08:00N 40°41' W 074°09'2 4.5
2018-Feb-10 07:30N 40°39' W 074°08'0 0.6
2018-Feb-10 06:53N 40°38' W 074°08'0 0.0
2018-Feb-10 06:14N 40°38' W 074°08'0 0.0
2018-Feb-10 05:59N 40°38' W 074°08'0 0.0
2018-Feb-10 05:29N 40°38' W 074°08'0 0.0
2018-Feb-10 04:50N 40°38' W 074°08'0 0.1
2018-Feb-10 04:31N 40°38' W 074°08'4 7.1
2018-Feb-10 04:00N 40°37' W 074°03'0 0.3
2018-Feb-10 03:29N 40°37' W 074°03'2 4.9
2018-Feb-10 03:00N 40°39' W 074°05'0 0.4
2018-Feb-10 02:30N 40°39' W 074°05'0 0.0
2018-Feb-10 01:59N 40°39' W 074°05'2 4.0
2018-Feb-10 01:29N 40°39' W 074°08'2 5.1
2018-Feb-10 01:00N 40°41' W 074°08'0 0.7
2018-Feb-10 00:30N 40°41' W 074°08'0 0.0
2018-Feb-10 00:00N 40°41' W 074°08'1 2.4
2018-Feb-09 23:30N 40°40' W 074°08'2 3.0
2018-Feb-09 22:58N 40°39' W 074°09'1 7.0
2018-Feb-09 22:46N 40°40' W 074°08'  

Dump ship's entire track history